Time;durP1;ratioP1;P1;durP2;ratioP2;P2;SDS_P1;SDS_P2;PMS_P1;PMS_P2;Temp;Humidity;BMP_temperature;BMP_pressure;BME280_temperature;BME280_humidity;BME280_pressure;Samples;Min_cycle;Max_cycle;Signal;HPM_P1;HPM_P2
2022/06/14 00:02:50;;;;;;;8.50;2.55;;;;;;;12.38;67.24;102397.94;5029736;28;20043;-82
2022/06/14 00:05:15;;;;;;;7.97;2.88;;;;;;;12.36;67.72;102397.88;5028539;28;20033;-82
2022/06/14 00:07:41;;;;;;;7.00;2.78;;;;;;;12.31;67.66;102400.31;5028963;28;20416;-81
2022/06/14 00:10:06;;;;;;;6.95;2.63;;;;;;;12.24;68.44;102406.09;5011528;28;20022;-82
2022/06/14 00:12:31;;;;;;;7.25;2.90;;;;;;;12.28;68.17;102401.88;5029170;28;20033;-82
2022/06/14 00:14:58;;;;;;;5.85;2.88;;;;;;;12.26;68.02;102399.19;5029290;28;20410;-81
2022/06/14 00:17:24;;;;;;;5.70;2.55;;;;;;;12.16;68.03;102391.81;5010543;28;20033;-82
2022/06/14 00:19:49;;;;;;;5.40;2.67;;;;;;;12.08;68.51;102388.88;5028865;28;20540;-81
2022/06/14 00:22:14;;;;;;;7.20;2.63;;;;;;;12.07;68.71;102396.66;5011475;28;20339;-81
2022/06/14 00:24:40;;;;;;;8.55;3.10;;;;;;;12.00;68.81;102395.50;5029139;28;20029;-81
2022/06/14 00:27:05;;;;;;;7.35;3.00;;;;;;;11.97;69.05;102387.53;5010979;28;20451;-82
2022/06/14 00:29:30;;;;;;;5.50;2.67;;;;;;;11.95;69.08;102390.06;5010815;28;20338;-82
2022/06/14 00:31:56;;;;;;;7.68;2.90;;;;;;;11.94;68.90;102390.91;5030006;28;20052;-81
2022/06/14 00:34:21;;;;;;;6.88;3.50;;;;;;;11.89;68.63;102389.78;5029200;28;20083;-82
2022/06/14 00:36:52;;;;;;;6.70;2.92;;;;;;;11.85;68.57;102393.09;5012115;28;20025;-81
2022/06/14 00:39:18;;;;;;;6.90;3.22;;;;;;;11.78;68.36;102388.44;5028939;28;20033;-81
2022/06/14 00:41:47;;;;;;;8.98;3.17;;;;;;;11.73;68.33;102390.84;5029949;28;20025;-81
2022/06/14 00:44:18;;;;;;;6.13;3.00;;;;;;;11.69;68.81;102381.09;5029762;28;20025;-82
2022/06/14 00:47:13;;;;;;;7.30;2.85;;;;;;;11.64;68.45;102388.72;5027291;28;20053;-82
2022/06/14 00:49:53;;;;;;;8.43;3.55;;;;;;;11.59;68.73;102387.63;5027466;28;20037;-82
2022/06/14 00:52:39;;;;;;;8.25;3.40;;;;;;;11.55;68.98;102392.63;5029807;28;20025;-81
2022/06/14 00:55:10;;;;;;;5.50;2.80;;;;;;;11.49;69.17;102382.81;5030191;28;20033;-82
2022/06/14 00:57:43;;;;;;;5.85;2.70;;;;;;;11.47;69.25;102377.53;5029706;28;20029;-82
2022/06/14 01:00:16;;;;;;;7.32;3.00;;;;;;;11.40;69.35;102380.69;5011247;28;20548;-82
2022/06/14 01:02:48;;;;;;;6.50;2.90;;;;;;;11.36;69.66;102378.75;5029784;28;20428;-81
2022/06/14 01:05:23;;;;;;;6.53;2.92;;;;;;;11.27;69.81;102379.22;5031482;28;20366;-81
2022/06/14 01:07:53;;;;;;;7.53;3.00;;;;;;;11.24;70.75;102378.19;5033311;28;20037;-81
2022/06/14 01:10:26;;;;;;;7.50;3.40;;;;;;;11.28;71.28;102374.88;5031507;28;20029;-81
2022/06/14 01:12:56;;;;;;;7.13;3.10;;;;;;;11.28;71.25;102381.03;5032249;28;20516;-81
2022/06/14 01:15:33;;;;;;;7.90;3.60;;;;;;;11.35;70.82;102376.97;5015254;28;20053;-81
2022/06/14 01:18:09;;;;;;;8.25;3.22;;;;;;;11.34;70.77;102375.19;5014414;28;20018;-81
2022/06/14 01:20:35;;;;;;;6.30;3.45;;;;;;;11.32;70.84;102376.81;5032892;28;20544;-81
2022/06/14 01:23:01;;;;;;;7.18;2.72;;;;;;;11.23;70.21;102373.81;5014153;28;20022;-81
2022/06/14 01:25:30;;;;;;;6.43;2.85;;;;;;;11.21;70.81;102380.66;5031990;28;20512;-81
2022/06/14 01:27:57;;;;;;;6.80;3.13;;;;;;;11.18;71.06;102378.81;5032072;28;20036;-82
2022/06/14 01:30:32;;;;;;;5.75;3.08;;;;;;;11.21;71.20;102375.44;5014416;28;20179;-81
2022/06/14 01:33:09;;;;;;;6.55;3.15;;;;;;;11.22;71.46;102374.63;5031270;28;20029;-81
2022/06/14 01:35:38;;;;;;;7.97;3.42;;;;;;;11.16;71.48;102380.44;5032840;28;20113;-81
2022/06/14 01:38:06;;;;;;;;;;;;;;;11.36;69.16;102375.25;5013661;28;20018;-81
2022/06/14 01:40:44;;;;;;;7.97;3.22;;;;;;;11.18;71.00;102368.38;5032790;28;19913;-81
2022/06/14 01:43:27;;;;;;;8.05;2.97;;;;;;;11.15;71.28;102368.22;5015013;28;20029;-81
2022/06/14 01:46:27;;;;;;;7.10;3.22;;;;;;;11.26;70.19;102367.00;5014764;28;20048;-82
2022/06/14 01:52:02;;;;;;;7.63;3.00;;;;;;;11.10;69.96;102364.53;5032802;28;20044;-81
2022/06/14 01:54:38;;;;;;;6.28;3.15;;;;;;;11.01;70.50;102366.69;5032179;28;20033;-81
2022/06/14 01:57:11;;;;;;;8.48;3.72;;;;;;;10.95;70.44;102365.59;5030408;28;20025;-81
2022/06/14 02:00:01;;;;;;;7.80;3.58;;;;;;;10.91;71.01;102366.28;5031297;28;20026;-81
2022/06/14 02:02:44;;;;;;;9.05;3.75;;;;;;;10.88;70.65;102368.75;5032064;28;20029;-81
2022/06/14 02:05:32;;;;;;;7.25;3.35;;;;;;;10.78;70.56;102358.72;5014505;28;20078;-81
2022/06/14 02:08:17;;;;;;;8.35;3.80;;;;;;;10.80;70.86;102359.66;5031315;28;20029;-81
2022/06/14 02:10:52;;;;;;;8.70;3.55;;;;;;;10.75;71.07;102356.84;5031389;28;20520;-81
2022/06/14 02:13:26;;;;;;;8.30;3.60;;;;;;;10.78;71.67;102350.88;5012384;28;20053;-82
2022/06/14 02:16:06;;;;;;;7.80;3.80;;;;;;;10.76;71.44;102347.28;5011384;28;20029;-81
2022/06/14 02:18:40;;;;;;;6.90;3.55;;;;;;;10.74;71.46;102349.81;5026411;28;20025;-74
2022/06/14 02:21:17;;;;;;;10.10;3.83;;;;;;;10.68;71.78;102354.75;5031577;28;20080;-74
2022/06/14 02:23:48;;;;;;;7.68;3.50;;;;;;;10.68;72.17;102353.88;5031934;28;20473;-74
2022/06/14 02:26:26;;;;;;;8.05;3.55;;;;;;;10.69;72.22;102348.72;5014061;28;20532;-74
2022/06/14 02:29:14;;;;;;;9.68;3.60;;;;;;;10.74;71.80;102338.53;5013388;28;20080;-74
2022/06/14 02:31:50;;;;;;;7.13;3.40;;;;;;;10.70;71.12;102341.78;5031799;28;20025;-74
2022/06/14 02:34:22;;;;;;;8.85;3.60;;;;;;;10.57;71.21;102333.41;5012990;28;20453;-74
2022/06/14 02:36:52;;;;;;;7.22;3.92;;;;;;;10.50;71.44;102333.03;5031139;28;20547;-74
2022/06/14 02:39:23;;;;;;;7.55;3.95;;;;;;;10.50;71.99;102338.25;5013671;28;20392;-74
2022/06/14 02:42:15;;;;;;;9.55;4.10;;;;;;;10.55;72.09;102340.25;5013615;28;20383;-74
2022/06/14 02:45:03;;;;;;;8.50;3.65;;;;;;;10.57;72.19;102329.91;5020787;28;20570;-74
2022/06/14 02:47:40;;;;;;;10.02;3.67;;;;;;;10.63;72.23;102326.69;5030205;28;20022;-81
2022/06/14 02:50:18;;;;;;;6.22;3.60;;;;;;;10.63;71.81;102321.47;5031350;28;20396;-82
2022/06/14 02:52:52;;;;;;;6.35;3.80;;;;;;;10.55;71.41;102329.81;5013721;28;20022;-81
2022/06/14 02:55:43;;;;;;;6.13;3.58;;;;;;;10.47;71.14;102323.38;5030906;28;20025;-81
2022/06/14 02:58:20;;;;;;;8.10;3.92;;;;;;;10.39;71.53;102325.59;5013389;28;20028;-81
2022/06/14 03:00:51;;;;;;;7.00;3.30;;;;;;;10.32;71.20;102333.00;5031059;28;20397;-82
2022/06/14 03:03:27;;;;;;;6.85;3.65;;;;;;;10.30;70.90;102330.34;5012482;28;20539;-81
2022/06/14 03:06:02;;;;;;;7.65;3.40;;;;;;;10.23;71.57;102334.34;5013223;28;20070;-81
2022/06/14 03:08:35;;;;;;;8.45;4.00;;;;;;;10.17;71.47;102333.16;5030871;28;20510;-82
2022/06/14 03:11:24;;;;;;;10.15;4.03;;;;;;;10.12;71.49;102329.44;5031535;28;20025;-80
2022/06/14 03:13:52;;;;;;;10.32;4.47;;;;;;;10.12;71.61;102334.63;5012232;28;20409;-82
2022/06/14 03:16:27;;;;;;;9.60;4.15;;;;;;;10.03;71.68;102337.69;5013017;28;20055;-82
2022/06/14 03:19:26;;;;;;;10.60;4.13;;;;;;;10.07;71.95;102327.47;5013235;28;20556;-82
2022/06/14 03:21:59;;;;;;;7.57;3.75;;;;;;;10.05;72.75;102329.13;5013097;28;20029;-82
2022/06/14 03:24:45;;;;;;;9.05;4.30;;;;;;;10.07;71.72;102335.28;5012208;28;20033;-81
2022/06/14 03:27:10;;;;;;;10.23;4.57;;;;;;;10.01;72.37;102340.22;5012721;28;20554;-82
2022/06/14 03:29:45;;;;;;;11.18;4.53;;;;;;;9.99;72.28;102339.22;5013081;28;20025;-82
2022/06/14 03:32:20;;;;;;;8.68;3.90;;;;;;;10.01;71.98;102331.50;5012642;28;20060;-81
2022/06/14 03:34:53;;;;;;;7.57;3.80;;;;;;;9.96;71.82;102333.84;5029514;28;20033;-82
2022/06/14 03:37:19;;;;;;;8.50;4.50;;;;;;;9.89;71.91;102334.38;5012063;28;20519;-82
2022/06/14 03:39:50;;;;;;;9.30;4.50;;;;;;;9.78;72.28;102333.84;5030433;28;20100;-82
2022/06/14 03:42:16;;;;;;;7.78;3.97;;;;;;;9.75;72.49;102331.09;5030315;28;20100;-82
2022/06/14 03:44:41;;;;;;;9.65;4.35;;;;;;;9.71;72.38;102331.75;5029500;28;20500;-81
2022/06/14 03:47:09;;;;;;;11.50;4.78;;;;;;;9.72;73.48;102330.94;5012591;28;20026;-82
2022/06/14 03:49:38;;;;;;;9.10;4.35;;;;;;;9.72;73.68;102320.53;5012675;28;20021;-82
2022/06/14 03:52:38;;;;;;;8.80;4.45;;;;;;;9.78;73.51;102335.56;5030050;28;20053;-82
2022/06/14 03:55:22;;;;;;;8.77;4.47;;;;;;;9.77;73.70;102325.94;5029197;28;20476;-82
2022/06/14 03:58:07;;;;;;;8.00;4.25;;;;;;;9.81;73.81;102328.78;5030186;28;20037;-82
2022/06/14 04:00:49;;;;;;;9.95;4.32;;;;;;;9.84;74.02;102323.72;5030674;28;20075;-82
2022/06/14 04:03:23;;;;;;;10.60;4.45;;;;;;;9.86;73.16;102324.72;5030196;28;20481;-82
2022/06/14 04:06:00;;;;;;;11.05;4.90;;;;;;;9.81;73.30;102331.38;5011866;28;20055;-82
2022/06/14 04:08:41;;;;;;;7.50;4.68;;;;;;;9.78;73.79;102333.84;5030212;28;20104;-82
2022/06/14 04:11:20;;;;;;;10.35;4.97;;;;;;;9.78;73.76;102336.44;5030010;28;20021;-82
2022/06/14 04:13:56;;;;;;;10.02;4.60;;;;;;;9.79;73.91;102340.84;5029046;28;20520;-82
2022/06/14 04:16:30;;;;;;;9.98;4.82;;;;;;;9.76;74.09;102345.88;5030172;28;20033;-82
2022/06/14 04:19:17;;;;;;;10.13;5.18;;;;;;;9.84;73.98;102343.66;5030511;28;20100;-82
2022/06/14 04:21:59;;;;;;;11.10;5.25;;;;;;;9.83;74.85;102345.38;5012625;28;20374;-82
2022/06/14 04:25:00;;;;;;;10.52;5.25;;;;;;;9.90;74.11;102349.19;5028583;28;20021;-82
2022/06/14 04:27:32;;;;;;;11.52;5.55;;;;;;;9.90;74.88;102343.97;5029172;28;20104;-82
2022/06/14 04:30:17;;;;;;;8.93;4.65;;;;;;;9.96;74.85;102351.19;5030070;28;20076;-82
2022/06/14 04:32:56;;;;;;;9.93;5.05;;;;;;;9.97;75.03;102345.19;5030046;28;20032;-82
2022/06/14 04:35:32;;;;;;;11.25;5.18;;;;;;;10.05;73.88;102357.78;5029172;28;20425;-82
2022/06/14 04:38:06;;;;;;;7.95;4.78;;;;;;;10.05;73.96;102354.25;5029637;28;20030;-82
2022/06/14 04:40:40;;;;;;;9.05;5.18;;;;;;;10.09;73.96;102351.00;5032519;28;20028;-83
2022/06/14 04:43:13;;;;;;;10.38;5.07;;;;;;;10.10;73.73;102351.06;5033716;28;20503;-82
2022/06/14 04:45:47;;;;;;;11.35;5.10;;;;;;;10.13;74.05;102358.16;5033043;28;20051;-82
2022/06/14 04:48:20;;;;;;;9.45;5.25;;;;;;;10.10;74.23;102356.28;5033790;28;20063;-83
2022/06/14 04:50:55;;;;;;;9.73;5.35;;;;;;;10.09;74.65;102353.59;5033594;28;20033;-82
2022/06/14 04:53:27;;;;;;;12.93;5.35;;;;;;;10.07;74.78;102355.25;5033497;28;20037;-82
2022/06/14 04:56:01;;;;;;;9.70;5.20;;;;;;;10.09;75.98;102345.78;5015266;28;20033;-82
2022/06/14 04:58:34;;;;;;;12.45;5.35;;;;;;;10.14;75.98;102346.91;5033666;28;20052;-82
2022/06/14 05:01:07;;;;;;;11.65;6.05;;;;;;;10.21;75.64;102343.81;5033179;28;20030;-80
2022/06/14 05:03:48;;;;;;;13.40;6.60;;;;;;;10.25;76.01;102355.25;5033518;28;20021;-82
2022/06/14 05:06:25;;;;;;;12.63;6.18;;;;;;;10.31;75.91;102354.66;5031861;28;20033;-82
2022/06/14 05:09:00;;;;;;;13.20;6.22;;;;;;;10.36;76.68;102351.50;5033367;28;20029;-83
2022/06/14 05:11:44;;;;;;;12.95;6.75;;;;;;;10.42;76.80;102354.41;5033234;28;20031;-82
2022/06/14 05:14:27;;;;;;;13.20;7.05;;;;;;;10.49;76.91;102350.38;5011360;28;20050;-82
2022/06/14 05:17:01;;;;;;;13.98;6.45;;;;;;;10.55;76.91;102348.06;5013548;28;20481;-73
2022/06/14 05:19:34;;;;;;;11.70;6.63;;;;;;;10.63;77.85;102360.56;5011784;28;20045;-73
2022/06/14 05:22:14;;;;;;;15.18;6.80;;;;;;;10.66;78.29;102356.41;5012450;28;20033;-73
2022/06/14 05:24:40;;;;;;;14.30;6.82;;;;;;;10.70;78.25;102363.56;5013207;28;20083;-73
2022/06/14 05:27:27;;;;;;;12.27;6.57;;;;;;;10.78;77.51;102356.97;5013259;28;20029;-73
2022/06/14 05:30:30;;;;;;;14.85;6.65;;;;;;;10.86;77.17;102361.66;5013272;28;20076;-73
2022/06/14 05:33:13;;;;;;;15.30;7.30;;;;;;;10.92;77.73;102362.84;5012612;28;20030;-74
2022/06/14 05:35:44;;;;;;;15.95;7.65;;;;;;;10.98;79.08;102363.94;5012103;28;20029;-73
2022/06/14 05:38:13;;;;;;;16.00;7.55;;;;;;;11.03;79.22;102359.84;5013102;28;20033;-73
2022/06/14 05:40:49;;;;;;;15.43;7.82;;;;;;;11.09;79.63;102360.13;5012762;28;20037;-73
2022/06/14 05:43:18;;;;;;;15.50;7.40;;;;;;;11.13;79.17;102360.31;5011981;28;20042;-73
2022/06/14 05:45:51;;;;;;;15.48;8.30;;;;;;;11.24;78.99;102358.22;5012026;28;20088;-73
2022/06/14 05:48:24;;;;;;;16.05;7.90;;;;;;;11.34;78.67;102354.31;5012805;28;20030;-73
2022/06/14 05:50:54;;;;;;;13.65;7.53;;;;;;;11.41;79.48;102359.00;5011932;28;20022;-73
2022/06/14 05:53:32;;;;;;;;;;;;;;;11.55;76.50;102359.56;5010777;28;20033;-73
2022/06/14 05:56:35;;;;;;;15.55;8.52;;;;;;;11.63;78.83;102363.44;5012855;28;19917;-73
2022/06/14 05:59:21;;;;;;;20.00;9.07;;;;;;;11.73;78.34;102362.13;5011373;28;20412;-73
2022/06/14 06:02:09;;;;;;;18.42;9.40;;;;;;;11.86;78.05;102365.25;5012518;28;20034;-73
2022/06/14 06:04:46;;;;;;;16.77;8.85;;;;;;;11.98;78.64;102365.81;5010873;28;20036;-74
2022/06/14 06:07:16;;;;;;;20.40;9.15;;;;;;;12.08;79.14;102367.97;5011567;28;20033;-73
2022/06/14 06:09:51;;;;;;;16.73;9.15;;;;;;;12.19;79.07;102365.78;5010727;28;20030;-74
2022/06/14 06:12:29;;;;;;;18.50;10.82;;;;;;;12.29;79.08;102367.97;5012358;28;20022;-73
2022/06/14 06:15:02;;;;;;;20.65;11.10;;;;;;;12.41;78.30;102366.69;5010137;28;20080;-74
2022/06/14 06:17:43;;;;;;;22.20;12.07;;;;;;;12.51;78.12;102368.84;5010450;28;20026;-74
2022/06/14 06:20:36;;;;;;;20.83;10.75;;;;;;;12.65;76.62;102375.50;5012246;28;20080;-74
2022/06/14 06:23:14;;;;;;;20.15;12.20;;;;;;;12.74;77.03;102376.72;5011217;28;20041;-74
2022/06/14 06:25:46;;;;;;;23.20;11.32;;;;;;;12.83;73.98;102377.97;5012148;28;20064;-74
2022/06/14 06:28:25;;;;;;;21.92;10.50;;;;;;;12.95;74.22;102372.31;5010131;28;20037;-74
2022/06/14 06:31:17;;;;;;;20.77;9.90;;;;;;;13.07;74.13;102373.63;5009746;28;20037;-74
2022/06/14 06:33:47;;;;;;;21.73;10.88;;;;;;;13.15;74.38;102369.53;5011943;28;20401;-74
2022/06/14 06:36:36;;;;;;;18.33;9.65;;;;;;;13.26;73.80;102365.63;5011926;28;20026;-74
2022/06/14 06:39:12;;;;;;;19.40;10.18;;;;;;;13.35;72.36;102368.63;5011019;28;20033;-74
2022/06/14 06:41:55;;;;;;;19.73;10.23;;;;;;;13.43;73.64;102371.50;5011702;28;20022;-74
2022/06/14 06:44:36;;;;;;;22.83;9.32;;;;;;;13.54;72.28;102371.88;5010448;28;20022;-74
2022/06/14 06:47:28;;;;;;;21.88;9.57;;;;;;;13.62;71.67;102372.19;5011816;28;20030;-82
2022/06/14 06:50:12;;;;;;;19.20;9.55;;;;;;;13.70;69.78;102381.19;5010037;28;20022;-82
2022/06/14 06:52:49;;;;;;;19.55;9.85;;;;;;;13.80;71.67;102374.53;5004643;28;20022;-82
2022/06/14 06:55:27;;;;;;;16.63;8.02;;;;;;;13.88;71.19;102373.97;5011490;28;20533;-82
2022/06/14 06:57:56;;;;;;;15.80;7.75;;;;;;;13.95;70.61;102376.78;5011452;28;20032;-82
2022/06/14 07:00:24;;;;;;;20.33;8.35;;;;;;;14.02;68.81;102373.53;5010230;28;20109;-82
2022/06/14 07:02:55;;;;;;;20.95;8.45;;;;;;;14.09;69.70;102371.19;5009684;28;20034;-82
2022/06/14 07:05:20;;;;;;;21.70;6.80;;;;;;;14.17;65.27;102375.81;5010701;28;20719;-82
2022/06/14 07:07:45;;;;;;;13.73;6.80;;;;;;;14.21;63.96;102375.09;5009971;28;20327;-82
2022/06/14 07:10:27;;;;;;;20.27;7.17;;;;;;;14.24;62.19;102370.81;5011310;28;20050;-82
2022/06/14 07:13:01;;;;;;;18.35;7.07;;;;;;;14.27;63.68;102376.16;5013400;28;20307;-81
2022/06/14 07:15:46;;;;;;;17.63;7.82;;;;;;;14.33;65.34;102366.72;5006165;28;20153;-82
2022/06/14 07:18:17;;;;;;;19.70;8.38;;;;;;;14.40;65.63;102379.19;5030891;28;20124;-82
2022/06/14 07:21:08;;;;;;;16.58;6.90;;;;;;;14.46;65.35;102375.88;5011390;28;20024;-82
2022/06/14 07:23:42;;;;;;;12.98;6.28;;;;;;;14.53;62.77;102380.47;5007203;28;20041;-82
2022/06/14 07:26:23;;;;;;;19.45;7.03;;;;;;;14.59;63.36;102375.44;5013020;28;20337;-84
2022/06/14 07:29:09;;;;;;;16.55;7.25;;;;;;;14.65;64.23;102369.50;5013243;28;20033;-86
2022/06/14 07:31:55;;;;;;;124.20;63.65;;;;;;;14.71;64.73;102369.69;5028784;28;20393;-84
2022/06/14 07:34:21;;;;;;;61.00;27.35;;;;;;;14.78;63.71;102369.03;5030591;28;20067;-84
2022/06/14 07:37:00;;;;;;;24.48;12.77;;;;;;;14.85;64.22;102375.38;5030555;28;20112;-85
2022/06/14 07:39:33;;;;;;;15.73;5.75;;;;;;;14.89;61.38;102372.00;5012862;28;20349;-84
2022/06/14 07:42:08;;;;;;;14.68;5.05;;;;;;;14.94;61.92;102370.41;5029776;28;20519;-83
2022/06/14 07:44:55;;;;;;;13.20;4.75;;;;;;;15.02;62.90;102368.91;5017722;28;20034;-83
2022/06/14 07:47:23;;;;;;;11.32;3.95;;;;;;;15.08;62.09;102368.19;5027771;28;20299;-82
2022/06/14 07:50:14;;;;;;;12.20;4.15;;;;;;;15.10;59.67;102366.50;4993069;28;20022;-81
2022/06/14 07:52:47;;;;;;;14.13;4.40;;;;;;;15.15;57.86;102367.53;5029575;28;20030;-80
2022/06/14 07:55:19;;;;;;;10.85;4.38;;;;;;;15.15;56.94;102361.38;5030678;28;20057;-82
2022/06/14 07:57:47;;;;;;;12.15;4.30;;;;;;;15.17;61.36;102363.22;5028502;28;20040;-84
2022/06/14 08:03:13;;;;;;;15.43;5.55;;;;;;;15.24;59.99;102365.16;5024821;28;20061;-87
2022/06/14 08:05:42;;;;;;;14.27;4.13;;;;;;;15.34;61.33;102363.69;5030037;28;20100;-85
2022/06/14 08:08:13;;;;;;;11.38;3.63;;;;;;;15.38;59.71;102362.94;5011568;28;20037;-84
2022/06/14 08:10:44;;;;;;;9.63;3.25;;;;;;;15.42;59.53;102356.91;5011355;28;20025;-85
2022/06/14 08:13:16;;;;;;;8.68;3.38;;;;;;;15.47;60.57;102357.94;5008969;28;20425;-82
2022/06/14 08:15:48;;;;;;;11.25;4.00;;;;;;;15.54;59.12;102350.22;5012757;28;20512;-81
2022/06/14 08:18:26;;;;;;;10.68;3.60;;;;;;;15.61;60.70;102346.91;5014246;28;20014;-83
2022/06/14 08:20:59;;;;;;;9.68;3.58;;;;;;;15.70;60.51;102352.44;5012604;28;20041;-84
2022/06/14 08:23:54;;;;;;;11.00;3.97;;;;;;;15.73;56.49;102344.63;5014394;28;20117;-82
2022/06/14 08:26:35;;;;;;;13.93;4.18;;;;;;;15.79;57.19;102344.81;5010165;28;20133;-81
2022/06/14 08:29:23;;;;;;;13.57;5.30;;;;;;;15.85;58.26;102344.06;5014272;28;20022;-83
2022/06/14 08:31:55;;;;;;;11.02;4.28;;;;;;;15.96;59.65;102346.97;5014174;28;20034;-83
2022/06/14 08:34:36;;;;;;;13.63;4.65;;;;;;;15.98;56.53;102347.91;5014209;28;20022;-80
2022/06/14 08:37:32;;;;;;;10.15;4.35;;;;;;;16.03;58.61;102334.88;5013127;28;20061;-80
2022/06/14 08:40:08;;;;;;;13.23;4.70;;;;;;;16.07;55.50;102336.75;5014002;28;20037;-80
2022/06/14 08:42:43;;;;;;;12.52;4.38;;;;;;;16.08;56.25;102331.53;5014272;28;20033;-81
2022/06/14 08:45:21;;;;;;;12.98;4.43;;;;;;;16.14;56.54;102339.53;5013107;28;20033;-80
2022/06/14 08:48:33;;;;;;;10.82;4.22;;;;;;;16.21;58.26;102343.22;5012426;28;20030;-81
2022/06/14 08:51:12;;;;;;;11.52;4.30;;;;;;;16.24;56.17;102339.78;4995407;28;20096;-80
2022/06/14 08:53:57;;;;;;;12.20;4.55;;;;;;;16.28;55.64;102337.25;5014034;28;20156;-83
2022/06/14 08:56:23;;;;;;;21.08;10.15;;;;;;;16.36;59.56;102332.19;5009852;28;20041;-81
2022/06/14 08:59:11;;;;;;;17.17;7.03;;;;;;;16.42;58.59;102334.94;5013797;28;20026;-81
2022/06/14 09:02:11;;;;;;;22.50;12.20;;;;;;;16.52;59.44;102339.59;5011361;28;20044;-82
2022/06/14 09:04:57;;;;;;;14.23;4.65;;;;;;;16.56;56.81;102335.28;5202611;23;20112;-96
2022/06/14 09:07:44;;;;;;;10.02;4.20;;;;;;;16.64;56.25;102338.97;4994175;28;20491;-96
2022/06/14 09:10:20;;;;;;;11.75;3.97;;;;;;;16.72;56.14;102330.38;5009604;28;20025;-96
2022/06/14 09:13:27;;;;;;;146.00;66.93;;;;;;;16.74;56.80;102329.53;5012255;28;20112;-96
2022/06/14 09:16:21;;;;;;;16.80;7.28;;;;;;;16.82;58.05;102327.06;5004973;28;20105;-96
2022/06/14 09:19:17;;;;;;;12.10;4.40;;;;;;;16.94;58.22;102331.75;4997271;28;20036;-96
2022/06/14 09:22:09;;;;;;;10.48;3.80;;;;;;;17.03;59.92;102326.66;5010247;28;20033;-96
2022/06/14 09:25:05;;;;;;;10.73;3.97;;;;;;;17.10;56.95;102332.94;5004875;28;20638;-96
2022/06/14 09:27:49;;;;;;;13.57;4.13;;;;;;;17.14;55.74;102325.13;4995795;28;20150;-96
2022/06/14 09:30:58;;;;;;;10.90;4.38;;;;;;;17.21;56.48;102331.44;4997093;28;20070;-96
2022/06/14 09:33:41;;;;;;;8.80;4.05;;;;;;;17.25;55.48;102328.00;5016725;28;20029;-96
2022/06/14 09:36:43;;;;;;;10.23;4.00;;;;;;;17.30;55.80;102321.06;5016001;28;20030;-96
2022/06/14 09:39:27;;;;;;;11.45;3.80;;;;;;;17.29;53.28;102326.28;5015990;28;20032;-96
2022/06/14 09:42:09;;;;;;;12.02;4.28;;;;;;;17.31;52.71;102317.56;5000218;28;20484;-96
2022/06/14 09:44:40;;;;;;;12.30;4.70;;;;;;;17.33;54.96;102318.47;5021936;28;20022;-96
2022/06/14 09:47:23;;;;;;;11.90;3.92;;;;;;;17.35;55.23;102308.88;5029098;28;20054;-96
2022/06/14 09:50:06;;;;;;;13.07;5.03;;;;;;;17.47;56.14;102312.59;5003169;28;20030;-96
2022/06/14 09:53:01;;;;;;;11.43;4.60;;;;;;;17.49;55.52;102297.69;5001818;28;20025;-96
2022/06/14 09:55:42;;;;;;;12.23;4.30;;;;;;;17.61;54.02;102303.19;4998069;28;20547;-94
2022/06/14 09:58:42;;;;;;;12.82;4.72;;;;;;;17.65;57.09;102305.00;5002885;28;20440;-95
2022/06/14 10:01:52;;;;;;;11.57;5.03;;;;;;;17.63;55.15;102305.88;5033103;28;20026;-96
2022/06/14 10:04:41;;;;;;;13.02;4.68;;;;;;;17.58;55.16;102299.59;5015375;28;20148;-96
2022/06/14 10:07:41;;;;;;;13.93;4.78;;;;;;;17.64;56.05;102295.34;5011383;28;20030;-95
2022/06/14 10:10:19;;;;;;;13.65;4.72;;;;;;;17.73;53.53;102300.75;5007260;28;20029;-96
2022/06/14 10:13:05;;;;;;;17.95;4.72;;;;;;;17.76;52.45;102296.44;5010342;28;20033;-95
2022/06/14 10:15:52;;;;;;;12.52;5.25;;;;;;;17.79;53.39;102291.19;5006296;28;20471;-96
2022/06/14 10:18:23;;;;;;;11.70;4.88;;;;;;;17.90;55.33;102287.91;4982780;28;20026;-96
2022/06/14 10:20:54;;;;;;;13.63;5.20;;;;;;;17.96;53.29;102292.41;5005546;28;20025;-96
2022/06/14 10:23:38;;;;;;;14.77;5.82;;;;;;;17.99;52.97;102286.28;5000316;28;20034;-95
2022/06/14 10:29:35;;;;;;;11.65;4.88;;;;;;;17.99;52.52;102286.28;5032714;28;20045;-96
2022/06/14 10:32:27;;;;;;;12.57;5.07;;;;;;;18.06;53.18;102278.50;5031666;28;20108;-96
2022/06/14 10:35:05;;;;;;;11.77;4.90;;;;;;;18.07;51.80;102268.81;4994953;28;20063;-96
2022/06/14 10:37:52;;;;;;;12.33;4.33;;;;;;;18.14;53.76;102265.41;4980524;28;20025;-96
2022/06/14 10:40:42;;;;;;;13.00;5.15;;;;;;;18.16;51.04;102263.69;5033919;28;20029;-95
2022/06/14 10:43:21;;;;;;;14.75;5.20;;;;;;;18.31;51.71;102256.88;5009718;28;20029;-96
2022/06/14 10:45:57;;;;;;;10.90;4.95;;;;;;;18.34;50.10;102256.91;4999017;28;20025;-96
2022/06/14 10:49:00;;;;;;;12.00;5.18;;;;;;;18.41;51.81;102251.72;5002310;28;20030;-96
2022/06/14 10:51:35;;;;;;;12.40;4.60;;;;;;;18.48;51.98;102249.16;4995019;28;20121;-96
2022/06/14 10:54:08;;;;;;;12.23;5.15;;;;;;;18.52;52.09;102246.56;5016884;28;20053;-96
2022/06/14 10:56:39;;;;;;;10.75;4.38;;;;;;;18.59;51.17;102243.16;4990003;28;20036;-96
2022/06/14 10:59:39;;;;;;;12.60;4.45;;;;;;;18.57;51.37;102233.47;5002192;28;20029;-95
2022/06/14 11:02:27;;;;;;;10.82;4.03;;;;;;;18.63;51.77;102237.94;5010476;28;20062;-95
2022/06/14 11:04:55;;;;;;;8.45;4.13;;;;;;;18.71;47.29;102236.25;5019759;28;20054;-96
2022/06/14 11:07:39;;;;;;;10.90;3.72;;;;;;;18.80;49.45;102232.84;5011031;28;20041;-96
2022/06/14 11:10:30;;;;;;;12.38;4.72;;;;;;;18.82;49.87;102228.47;5005158;28;20069;-95
2022/06/14 11:13:20;;;;;;;9.98;5.00;;;;;;;18.81;49.75;102224.94;4992617;28;20057;-96
2022/06/14 11:16:00;;;;;;;10.70;4.00;;;;;;;18.92;51.28;102225.97;4972724;28;20075;-96
2022/06/14 11:18:46;;;;;;;8.45;3.90;;;;;;;18.99;49.10;102226.94;5010474;28;20030;-96
2022/06/14 11:21:23;;;;;;;7.65;4.05;;;;;;;19.15;51.53;102227.09;5011562;28;20026;-96
2022/06/14 11:23:58;;;;;;;9.45;3.88;;;;;;;19.20;50.60;102222.75;4991830;28;20098;-96
2022/06/14 11:26:50;;;;;;;11.85;4.25;;;;;;;19.18;48.37;102217.44;4992734;28;20062;-95
2022/06/14 11:29:48;;;;;;;9.07;4.30;;;;;;;19.27;50.98;102221.94;5003193;28;20045;-95
2022/06/14 11:32:29;;;;;;;10.23;3.88;;;;;;;19.23;47.52;102218.41;5013543;28;20017;-96
2022/06/14 11:35:13;;;;;;;7.78;3.70;;;;;;;19.23;49.14;102202.53;5009178;28;20038;-96
2022/06/14 11:38:00;;;;;;;9.48;4.03;;;;;;;19.31;48.92;102213.16;4993390;28;20029;-95
2022/06/14 11:40:30;;;;;;;9.90;4.35;;;;;;;19.29;47.79;102194.66;5014389;28;20041;-94
2022/06/14 11:43:28;;;;;;;11.35;5.38;;;;;;;19.30;48.19;102192.88;4991257;28;20042;-96
2022/06/14 11:45:59;;;;;;;11.25;4.88;;;;;;;19.36;47.95;102197.34;5005586;28;20112;-96
2022/06/14 11:48:37;;;;;;;10.75;4.63;;;;;;;19.36;46.77;102181.50;5012839;28;20055;-96
2022/06/14 11:51:27;;;;;;;9.15;4.60;;;;;;;19.45;49.90;102195.69;4991966;28;20036;-96
2022/06/14 11:53:59;;;;;;;11.88;4.70;;;;;;;19.50;46.80;102190.44;4984314;28;20059;-96
2022/06/14 11:56:44;;;;;;;11.40;4.68;;;;;;;19.59;49.12;102193.13;4990307;28;20593;-96
2022/06/14 11:59:39;;;;;;;13.77;5.25;;;;;;;19.63;49.75;102184.34;4992874;28;20071;-96
2022/06/14 12:02:53;;;;;;;11.35;5.35;;;;;;;19.67;50.31;102179.06;5000993;28;20037;-96
2022/06/14 12:05:34;;;;;;;13.77;5.38;;;;;;;19.76;47.90;102179.16;4932883;28;20057;-95
2022/06/14 12:08:25;;;;;;;12.55;5.82;;;;;;;19.71;47.19;102188.81;4980213;28;20053;-95
2022/06/14 12:11:01;;;;;;;12.10;5.63;;;;;;;19.68;46.60;102180.84;4988852;28;20034;-95
2022/06/14 12:13:46;;;;;;;12.65;5.68;;;;;;;19.70;47.13;102181.78;4992830;28;20022;-96
2022/06/14 12:16:17;;;;;;;11.88;5.25;;;;;;;19.71;47.64;102180.88;4974741;28;20041;-95
2022/06/14 12:19:05;;;;;;;10.25;5.13;;;;;;;19.77;47.83;102189.75;5013102;28;20080;-96
2022/06/14 12:21:41;;;;;;;10.32;4.75;;;;;;;19.80;49.00;102183.63;5007304;28;20108;-96
2022/06/14 12:24:13;;;;;;;13.55;7.10;;;;;;;19.78;44.83;102175.69;5031442;28;20048;-95
2022/06/14 12:26:59;;;;;;;15.95;5.82;;;;;;;19.85;47.58;102176.59;5009644;28;20022;-95